Time;durP1;ratioP1;P1;durP2;ratioP2;P2;SDS_P1;SDS_P2;PMS_P1;PMS_P2;Temp;Humidity;BMP_temperature;BMP_pressure;BME280_temperature;BME280_humidity;BME280_pressure;Samples;Min_cycle;Max_cycle;Signal;HPM_P1;HPM_P2
2021/11/21 00:01:29;;;;;;;9.98;8.90;;;;;;;;;;10487774;28;20029;-85
2021/11/21 00:06:30;;;;;;;11.07;9.85;;;;;;;;;;10452736;28;20044;-84
2021/11/21 00:11:31;;;;;;;13.63;11.82;;;;;;;;;;10470708;28;20051;-85
2021/11/21 00:16:32;;;;;;;15.50;13.25;;;;;;;;;;10451589;28;20091;-85
2021/11/21 00:21:33;;;;;;;11.40;10.00;;;;;;;;;;10452312;28;20037;-85
2021/11/21 00:26:34;;;;;;;8.05;6.97;;;;;;;;;;10451829;28;20029;-85
2021/11/21 00:31:35;;;;;;;13.85;11.98;;;;;;;;;;10451857;28;20057;-83
2021/11/21 00:36:36;;;;;;;10.77;9.43;;;;;;;;;;10451735;28;20048;-82
2021/11/21 00:41:37;;;;;;;13.40;11.18;;;;;;;;;;10468561;28;20041;-82
2021/11/21 00:46:38;;;;;;;8.95;7.82;;;;;;;;;;10450877;28;20037;-83
2021/11/21 00:51:39;;;;;;;10.90;9.02;;;;;;;;;;10468917;28;20041;-82
2021/11/21 00:56:40;;;;;;;9.52;7.90;;;;;;;;;;10460118;28;20059;-83
2021/11/21 01:01:41;;;;;;;;;;;;;;;;;;10468294;28;20043;-83
2021/11/21 01:06:42;;;;;;;19.55;14.63;;;;;;;;;;10468820;28;19983;-83
2021/11/21 01:11:43;;;;;;;10.35;8.73;;;;;;;;;;10460058;28;20155;-86
2021/11/21 01:16:44;;;;;;;;;;;;;;;;;;10458020;28;20083;-86
2021/11/21 01:21:45;;;;;;;13.45;11.00;;;;;;;;;;10454787;28;19917;-86
2021/11/21 01:26:46;;;;;;;;;;;;;;;;;;10454742;28;20110;-85
2021/11/21 01:31:47;;;;;;;;;;;;;;;;;;10455874;28;19909;-85
2021/11/21 01:36:48;;;;;;;;;;;;;;;;;;10454869;28;19950;-85
2021/11/21 01:41:49;;;;;;;12.60;9.98;;;;;;;;;;10453749;28;19915;-86
2021/11/21 01:46:51;;;;;;;;;;;;;;;;;;10455147;28;20079;-85
2021/11/21 01:51:52;;;;;;;24.50;19.90;;;;;;;;;;10450588;28;19916;-85
2021/11/21 01:56:54;;;;;;;14.77;12.35;;;;;;;;;;10445142;28;20124;-85
2021/11/21 02:01:55;;;;;;;11.18;9.57;;;;;;;;;;10446262;28;20067;-85
2021/11/21 02:06:56;;;;;;;10.98;9.13;;;;;;;;;;10467743;28;20052;-83
2021/11/21 02:11:57;;;;;;;;;;;;;;;;;;10474909;28;20052;-85
2021/11/21 03:25:16;;;;;;;14.10;12.05;;;;;;;;;;10357444;28;20038;-85
2021/11/21 03:30:56;;;;;;;7.72;6.93;;;;;;;;;;10356761;28;20141;-85
2021/11/21 04:27:15;;;;;;;10.63;9.07;;;;;;;;;;10512482;28;20039;-86
2021/11/21 04:44:11;;;;;;;13.35;11.40;;;;;;;;;;10430155;28;20017;-86
2021/11/21 04:49:12;;;;;;;11.43;9.52;;;;;;;;;;10412235;28;20048;-86
2021/11/21 04:54:16;;;;;;;;;;;;;;;;;;10510070;28;20056;-86
2021/11/21 04:59:17;;;;;;;11.98;9.55;;;;;;;;;;10509004;28;19905;-86
2021/11/21 05:04:18;;;;;;;15.55;11.68;;;;;;;;;;10490708;28;20414;-86
2021/11/21 05:09:20;;;;;;;6.78;6.07;;;;;;;;;;10489965;28;20131;-86
2021/11/21 05:14:21;;;;;;;15.23;12.60;;;;;;;;;;10489619;28;20039;-86
2021/11/21 05:19:22;;;;;;;10.73;9.10;;;;;;;;;;10490900;28;20044;-86
2021/11/21 05:24:24;;;;;;;6.43;5.75;;;;;;;;;;10491301;28;20547;-86
2021/11/21 05:29:25;;;;;;;18.95;15.00;;;;;;;;;;10491183;28;20068;-86
2021/11/21 05:34:26;;;;;;;12.95;10.25;;;;;;;;;;10496139;28;20410;-87
2021/11/21 05:39:27;;;;;;;11.98;9.27;;;;;;;;;;10487092;28;20040;-85
2021/11/21 05:44:28;;;;;;;;;;;;;;;;;;10507345;28;20090;-87
2021/11/21 05:49:29;;;;;;;7.85;6.82;;;;;;;;;;10493466;28;19915;-87
2021/11/21 05:54:30;;;;;;;18.40;15.80;;;;;;;;;;10489249;28;20036;-86
2021/11/21 05:59:35;;;;;;;11.95;10.18;;;;;;;;;;10487167;28;20034;-86
2021/11/21 06:04:36;;;;;;;11.10;9.48;;;;;;;;;;10486576;28;20078;-87
2021/11/21 06:09:37;;;;;;;10.23;9.13;;;;;;;;;;10487185;28;20072;-86
2021/11/21 06:14:38;;;;;;;11.10;9.23;;;;;;;;;;10496899;28;20048;-87
2021/11/21 06:19:39;;;;;;;9.85;7.95;;;;;;;;;;10499407;28;20039;-87
2021/11/21 06:24:41;;;;;;;10.32;8.52;;;;;;;;;;10497622;28;20478;-87
2021/11/21 06:29:42;;;;;;;7.82;6.65;;;;;;;;;;10490471;28;20101;-87
2021/11/21 06:34:43;;;;;;;11.82;9.43;;;;;;;;;;10507634;28;20036;-87
2021/11/21 06:39:45;;;;;;;7.90;7.05;;;;;;;;;;10489350;28;20033;-86
2021/11/21 06:44:46;;;;;;;12.20;9.38;;;;;;;;;;10487602;28;20104;-86
2021/11/21 06:49:47;;;;;;;13.73;11.57;;;;;;;;;;10490516;28;20045;-87
2021/11/21 06:54:49;;;;;;;8.93;6.80;;;;;;;;;;10490397;28;20151;-86
2021/11/21 06:59:50;;;;;;;11.50;9.18;;;;;;;;;;10488290;28;20037;-86
2021/11/21 07:04:51;;;;;;;10.10;8.73;;;;;;;;;;10487648;28;20127;-86
2021/11/21 07:09:52;;;;;;;7.20;6.30;;;;;;;;;;10493274;28;20028;-86
2021/11/21 07:14:53;;;;;;;5.97;5.38;;;;;;;;;;10485466;28;20033;-87
2021/11/21 07:19:54;;;;;;;7.40;6.10;;;;;;;;;;10483659;28;20063;-86
2021/11/21 07:24:55;;;;;;;7.13;6.35;;;;;;;;;;10483855;28;20477;-86
2021/11/21 07:29:56;;;;;;;7.15;6.28;;;;;;;;;;10484465;28;20380;-86
2021/11/21 07:34:57;;;;;;;6.95;6.18;;;;;;;;;;10486954;28;20486;-85
2021/11/21 07:39:58;;;;;;;11.80;8.80;;;;;;;;;;10483926;28;20040;-85
2021/11/21 07:44:59;;;;;;;5.85;5.25;;;;;;;;;;10492278;28;20029;-85
2021/11/21 07:50:00;;;;;;;5.88;5.18;;;;;;;;;;10492304;28;20033;-86
2021/11/21 07:55:01;;;;;;;6.93;6.22;;;;;;;;;;10492726;28;20032;-86
2021/11/21 08:00:03;;;;;;;6.00;5.40;;;;;;;;;;10492963;28;20538;-87
2021/11/21 08:05:05;;;;;;;7.22;6.22;;;;;;;;;;10491523;28;20089;-86
2021/11/21 08:10:07;;;;;;;5.20;4.65;;;;;;;;;;10491169;28;20033;-87
2021/11/21 08:15:08;;;;;;;5.85;5.22;;;;;;;;;;10489383;28;20035;-87
2021/11/21 08:20:09;;;;;;;5.82;4.97;;;;;;;;;;10494193;23;20096;-83
2021/11/21 08:25:11;;;;;;;5.45;4.88;;;;;;;;;;10477209;28;20130;-83
2021/11/21 08:30:12;;;;;;;5.05;4.45;;;;;;;;;;10504178;28;20063;-83
2021/11/21 08:35:13;;;;;;;6.20;4.97;;;;;;;;;;10504786;28;20025;-83
2021/11/21 08:40:14;;;;;;;5.82;5.20;;;;;;;;;;10471467;28;20195;-83
2021/11/21 08:45:16;;;;;;;4.65;4.15;;;;;;;;;;10470291;28;20560;-83
2021/11/21 08:50:17;;;;;;;5.88;5.22;;;;;;;;;;10473260;28;20399;-84
2021/11/21 08:55:18;;;;;;;5.90;5.30;;;;;;;;;;10472889;28;20032;-83
2021/11/21 09:00:19;;;;;;;5.15;4.45;;;;;;;;;;10471354;28;20103;-83
2021/11/21 09:05:20;;;;;;;9.25;7.78;;;;;;;;;;10470253;28;20175;-83
2021/11/21 09:10:22;;;;;;;5.28;4.78;;;;;;;;;;10468905;28;20514;-86
2021/11/21 09:15:22;;;;;;;8.13;6.93;;;;;;;;;;10464780;28;20039;-86
2021/11/21 09:20:23;;;;;;;4.63;4.00;;;;;;;;;;10464957;28;20067;-85
2021/11/21 09:25:25;;;;;;;6.35;5.60;;;;;;;;;;10464329;28;20025;-86
2021/11/21 09:30:26;;;;;;;9.10;7.38;;;;;;;;;;10464518;28;20060;-85
2021/11/21 09:35:27;;;;;;;6.40;5.47;;;;;;;;;;10464990;28;20040;-86
2021/11/21 09:40:28;;;;;;;6.68;5.90;;;;;;;;;;10448624;28;20097;-86
2021/11/21 09:45:29;;;;;;;4.18;3.75;;;;;;;;;;10463647;28;20538;-86
2021/11/21 09:50:31;;;;;;;4.80;4.25;;;;;;;;;;10463371;28;20079;-86
2021/11/21 09:55:32;;;;;;;4.22;3.50;;;;;;;;;;10464438;28;20033;-86
2021/11/21 10:00:34;;;;;;;5.50;4.88;;;;;;;;;;10466817;28;20060;-86
2021/11/21 10:05:37;;;;;;;4.55;3.67;;;;;;;;;;10463030;28;20039;-86
2021/11/21 10:10:43;;;;;;;8.07;5.30;;;;;;;;;;10463439;28;20047;-86
2021/11/21 10:15:44;;;;;;;4.05;3.58;;;;;;;;;;10463041;28;20060;-86
2021/11/21 10:20:45;;;;;;;6.40;5.13;;;;;;;;;;10460626;28;20470;-85
2021/11/21 10:25:48;;;;;;;4.45;3.80;;;;;;;;;;10460722;28;20076;-86
2021/11/21 10:30:57;;;;;;;5.65;4.30;;;;;;;;;;10460756;28;20033;-85
2021/11/21 10:36:06;;;;;;;6.28;4.68;;;;;;;;;;10459513;28;20540;-85
2021/11/21 10:41:08;;;;;;;6.35;4.53;;;;;;;;;;10464738;28;20088;-83
2021/11/21 10:46:20;;;;;;;4.05;3.33;;;;;;;;;;10489934;28;20041;-85
2021/11/21 10:51:25;;;;;;;6.45;4.78;;;;;;;;;;10463650;28;20048;-85
2021/11/21 10:56:26;;;;;;;5.45;3.50;;;;;;;;;;10472542;28;20041;-82
2021/11/21 11:01:27;;;;;;;5.07;3.72;;;;;;;;;;10474420;28;20133;-83
2021/11/21 11:06:28;;;;;;;4.72;3.83;;;;;;;;;;10482887;28;20045;-82
2021/11/21 11:11:29;;;;;;;;;;;;;;;;;;10502066;28;20056;-83
2021/11/21 11:16:30;;;;;;;4.57;3.10;;;;;;;;;;10491074;28;19913;-83
2021/11/21 11:21:31;;;;;;;4.63;3.55;;;;;;;;;;10461073;28;20071;-83
2021/11/21 11:26:33;;;;;;;4.93;3.15;;;;;;;;;;10470299;28;20037;-83
2021/11/21 11:31:36;;;;;;;9.07;4.50;;;;;;;;;;10490225;28;20344;-83
2021/11/21 11:36:39;;;;;;;4.45;2.50;;;;;;;;;;10482832;28;20044;-83
2021/11/21 11:41:40;;;;;;;3.90;2.40;;;;;;;;;;10483693;28;20029;-84
2021/11/21 11:46:42;;;;;;;3.72;2.40;;;;;;;;;;10477179;28;20037;-83
2021/11/21 11:51:48;;;;;;;4.70;2.20;;;;;;;;;;10458073;28;20029;-83
2021/11/21 11:57:15;;;;;;;6.75;3.10;;;;;;;;;;10458849;28;20025;-83
2021/11/21 12:02:32;;;;;;;4.35;2.50;;;;;;;;;;10454214;28;20060;-83
2021/11/21 12:07:40;;;;;;;4.97;2.20;;;;;;;;;;10459137;28;20385;-83
2021/11/21 12:12:50;;;;;;;5.47;1.85;;;;;;;;;;10459348;28;20522;-84
2021/11/21 12:17:52;;;;;;;3.73;1.70;;;;;;;;;;10457642;28;20048;-83
2021/11/21 12:22:54;;;;;;;3.58;1.65;;;;;;;;;;10459810;28;20331;-84
2021/11/21 12:27:59;;;;;;;4.97;1.70;;;;;;;;;;10466303;28;20040;-84
2021/11/21 12:33:02;;;;;;;5.82;1.73;;;;;;;;;;10467090;28;20044;-84
2021/11/21 12:38:06;;;;;;;5.90;1.75;;;;;;;;;;10456197;28;20037;-83
2021/11/21 12:43:09;;;;;;;9.50;2.08;;;;;;;;;;10452035;28;20021;-83
2021/11/21 12:48:11;;;;;;;4.53;1.83;;;;;;;;;;10460840;28;20025;-83
2021/11/21 12:53:19;;;;;;;2.53;1.50;;;;;;;;;;10483484;28;20139;-83
2021/11/21 12:58:22;;;;;;;5.82;1.60;;;;;;;;;;10461254;28;20071;-82
2021/11/21 13:03:24;;;;;;;3.88;1.48;;;;;;;;;;10456630;28;20040;-83
2021/11/21 13:08:27;;;;;;;6.60;1.45;;;;;;;;;;10456603;28;20061;-83
2021/11/21 13:13:33;;;;;;;4.53;1.38;;;;;;;;;;10455430;28;20419;-83
2021/11/21 13:18:37;;;;;;;7.03;1.60;;;;;;;;;;10455479;28;20040;-83
2021/11/21 13:23:39;;;;;;;6.95;1.60;;;;;;;;;;10474892;28;20029;-83
2021/11/21 13:28:45;;;;;;;3.55;1.50;;;;;;;;;;10472460;28;20070;-82
2021/11/21 13:33:49;;;;;;;6.60;1.60;;;;;;;;;;10463918;28;20402;-86
2021/11/21 13:38:52;;;;;;;3.30;1.30;;;;;;;;;;10451793;28;20037;-85
2021/11/21 13:44:01;;;;;;;4.78;1.45;;;;;;;;;;10450360;28;20479;-85
2021/11/21 13:49:12;;;;;;;4.43;1.65;;;;;;;;;;10467275;28;20072;-85
2021/11/21 13:54:22;;;;;;;3.20;1.23;;;;;;;;;;10449540;28;20033;-86
2021/11/21 13:59:23;;;;;;;3.40;1.38;;;;;;;;;;10449995;28;20383;-85
2021/11/21 14:04:24;;;;;;;;;;;;;;;;;;10451473;28;20037;-86
2021/11/21 14:09:25;;;;;;;2.65;1.08;;;;;;;;;;10452658;28;19909;-86
2021/11/21 14:14:26;;;;;;;3.53;1.40;;;;;;;;;;10451174;28;20037;-85
2021/11/21 14:19:30;;;;;;;6.97;1.70;;;;;;;;;;10452444;28;20049;-85
2021/11/21 14:24:31;;;;;;;4.78;1.40;;;;;;;;;;10453037;28;20043;-87
2021/11/21 14:29:35;;;;;;;3.65;1.10;;;;;;;;;;10447758;28;20033;-86
2021/11/21 14:34:37;;;;;;;3.97;1.17;;;;;;;;;;10446685;28;20123;-86
2021/11/21 14:39:38;;;;;;;3.58;1.10;;;;;;;;;;10464307;28;20387;-87
2021/11/21 14:44:41;;;;;;;3.13;1.45;;;;;;;;;;10445343;28;20083;-86
2021/11/21 14:49:44;;;;;;;2.78;1.00;;;;;;;;;;10448564;28;20040;-86
2021/11/21 14:54:46;;;;;;;3.80;1.20;;;;;;;;;;10472282;28;20033;-86
2021/11/21 14:59:48;;;;;;;2.30;1.08;;;;;;;;;;10479289;28;20056;-84
2021/11/21 15:04:49;;;;;;;2.78;1.17;;;;;;;;;;10477609;28;20065;-83
2021/11/21 15:09:50;;;;;;;2.58;0.98;;;;;;;;;;10473909;28;20041;-83
2021/11/21 15:14:51;;;;;;;2.58;1.30;;;;;;;;;;10472673;28;20052;-83
2021/11/21 15:19:52;;;;;;;2.53;1.17;;;;;;;;;;10472996;28;20128;-86
2021/11/21 15:24:53;;;;;;;2.88;1.30;;;;;;;;;;10472429;28;20033;-86
2021/11/21 15:29:54;;;;;;;3.72;1.20;;;;;;;;;;10472932;28;20100;-86
2021/11/21 15:34:55;;;;;;;4.28;1.50;;;;;;;;;;10471346;28;20037;-85
2021/11/21 15:39:56;;;;;;;3.78;1.80;;;;;;;;;;10472037;28;20036;-85
2021/11/21 15:44:58;;;;;;;3.47;1.48;;;;;;;;;;10470344;28;20107;-85
2021/11/21 15:49:59;;;;;;;3.97;1.48;;;;;;;;;;10470799;28;20068;-85
2021/11/21 15:55:00;;;;;;;3.28;1.40;;;;;;;;;;10471025;28;20025;-85
2021/11/21 16:00:01;;;;;;;2.17;1.00;;;;;;;;;;10471812;28;20060;-85
2021/11/21 16:05:03;;;;;;;3.40;1.15;;;;;;;;;;10477342;28;20048;-85
2021/11/21 16:10:04;;;;;;;3.90;1.30;;;;;;;;;;10479638;28;20049;-85
2021/11/21 16:15:06;;;;;;;2.95;1.10;;;;;;;;;;10480060;28;20029;-85
2021/11/21 16:20:14;;;;;;;2.92;1.23;;;;;;;;;;10471476;28;20132;-85
2021/11/21 16:25:16;;;;;;;2.85;1.23;;;;;;;;;;10466133;28;20388;-85
2021/11/21 16:30:18;;;;;;;2.53;1.17;;;;;;;;;;10465851;28;20465;-85
2021/11/21 16:35:19;;;;;;;3.05;1.30;;;;;;;;;;10465977;28;20509;-83
2021/11/21 16:40:21;;;;;;;4.35;1.50;;;;;;;;;;10465766;28;20056;-84
2021/11/21 16:45:24;;;;;;;2.50;1.10;;;;;;;;;;10465968;28;20144;-84
2021/11/21 16:50:28;;;;;;;4.07;1.27;;;;;;;;;;10465646;28;20029;-84
2021/11/21 16:55:36;;;;;;;2.78;1.05;;;;;;;;;;10487459;28;20533;-84
2021/11/21 17:00:37;;;;;;;2.70;1.20;;;;;;;;;;10462378;28;20038;-85
2021/11/21 17:05:39;;;;;;;2.55;1.05;;;;;;;;;;10479614;28;20048;-84
2021/11/21 17:10:40;;;;;;;2.25;1.10;;;;;;;;;;10484377;28;20053;-84
2021/11/21 17:15:41;;;;;;;2.17;1.05;;;;;;;;;;10461559;28;20037;-84
2021/11/21 17:20:43;;;;;;;1.98;1.00;;;;;;;;;;10459806;28;20423;-84
2021/11/21 17:25:46;;;;;;;4.95;1.33;;;;;;;;;;10458145;28;20568;-84
2021/11/21 17:30:47;;;;;;;2.78;1.10;;;;;;;;;;10460183;28;20044;-84
2021/11/21 17:35:53;;;;;;;2.30;1.00;;;;;;;;;;10462100;28;20028;-84
2021/11/21 17:40:54;;;;;;;3.15;1.40;;;;;;;;;;10460426;28;20498;-84
2021/11/21 17:45:55;;;;;;;3.65;1.30;;;;;;;;;;10459724;28;20100;-84
2021/11/21 17:50:56;;;;;;;2.25;1.15;;;;;;;;;;10459088;28;20033;-84
2021/11/21 17:56:17;;;;;;;4.45;1.50;;;;;;;;;;10459659;28;20124;-86
2021/11/21 18:01:34;;;;;;;4.20;1.55;;;;;;;;;;10480823;28;20043;-87
2021/11/21 18:06:35;;;;;;;4.28;1.98;;;;;;;;;;10458878;28;20399;-83
2021/11/21 18:11:55;;;;;;;4.38;1.88;;;;;;;;;;10458657;28;20426;-84
2021/11/21 18:16:57;;;;;;;3.28;1.95;;;;;;;;;;10458832;28;20029;-84
2021/11/21 18:21:58;;;;;;;4.57;2.20;;;;;;;;;;10459778;28;20124;-84
2021/11/21 18:26:59;;;;;;;4.85;2.03;;;;;;;;;;10457930;28;20029;-85
2021/11/21 18:32:01;;;;;;;3.45;1.90;;;;;;;;;;10458649;28;20091;-84
2021/11/21 18:37:02;;;;;;;3.30;1.60;;;;;;;;;;10460310;28;20036;-83
2021/11/21 18:42:03;;;;;;;3.47;1.60;;;;;;;;;;10471361;28;20041;-85
2021/11/21 18:47:04;;;;;;;3.95;1.80;;;;;;;;;;10468842;28;20036;-84
2021/11/21 18:52:06;;;;;;;4.82;1.95;;;;;;;;;;10471840;28;20101;-84
2021/11/21 18:57:08;;;;;;;4.10;1.85;;;;;;;;;;10489278;28;20025;-86
2021/11/21 19:02:33;;;;;;;3.58;1.77;;;;;;;;;;10489678;28;20039;-84
2021/11/21 19:07:34;;;;;;;3.72;1.85;;;;;;;;;;10470456;28;20033;-86
2021/11/21 19:12:35;;;;;;;4.50;1.83;;;;;;;;;;10468055;28;20557;-84
2021/11/21 19:17:36;;;;;;;3.70;1.90;;;;;;;;;;10486657;28;20056;-82
2021/11/21 19:22:38;;;;;;;2.58;1.55;;;;;;;;;;10468958;28;20065;-84
2021/11/21 19:27:39;;;;;;;2.67;1.73;;;;;;;;;;10468745;28;20056;-84
2021/11/21 19:32:40;;;;;;;2.78;1.60;;;;;;;;;;10473049;28;20041;-86
2021/11/21 19:37:41;;;;;;;2.75;1.67;;;;;;;;;;10473848;28;20041;-84
2021/11/21 19:42:49;;;;;;;2.85;1.70;;;;;;;;;;10495954;28;20479;-84
2021/11/21 19:47:51;;;;;;;2.95;1.52;;;;;;;;;;10478167;28;20079;-85
2021/11/21 19:52:53;;;;;;;3.42;1.95;;;;;;;;;;10495014;28;20063;-85
2021/11/21 19:57:54;;;;;;;2.65;1.50;;;;;;;;;;10477169;28;20479;-86
2021/11/21 20:02:55;;;;;;;2.95;1.77;;;;;;;;;;10495144;28;20037;-83
2021/11/21 20:07:56;;;;;;;2.88;1.92;;;;;;;;;;10477972;28;20064;-84
2021/11/21 20:12:59;;;;;;;3.00;2.13;;;;;;;;;;10478228;28;20033;-84
2021/11/21 20:18:01;;;;;;;2.58;1.95;;;;;;;;;;10475910;28;20041;-86
2021/11/21 20:23:02;;;;;;;3.65;2.00;;;;;;;;;;10478346;28;20041;-86
2021/11/21 20:28:05;;;;;;;3.30;2.00;;;;;;;;;;10476600;28;20041;-85
2021/11/21 20:38:27;;;;;;;2.25;1.58;;;;;;;;;;10491570;28;20037;-82
2021/11/21 20:43:28;;;;;;;3.05;1.67;;;;;;;;;;10473946;28;20032;-85
2021/11/21 20:48:29;;;;;;;2.92;1.42;;;;;;;;;;10474706;28;20036;-82
2021/11/21 20:53:30;;;;;;;3.33;1.90;;;;;;;;;;10477109;28;20111;-82
2021/11/21 20:58:31;;;;;;;3.30;1.65;;;;;;;;;;10475792;28;20041;-84
2021/11/21 21:03:32;;;;;;;3.25;1.90;;;;;;;;;;10474957;28;20080;-84
2021/11/21 21:08:34;;;;;;;3.88;1.88;;;;;;;;;;10474069;28;20064;-84
2021/11/21 21:13:35;;;;;;;2.85;1.90;;;;;;;;;;10473127;28;20029;-84
